Time;durP1;ratioP1;P1;durP2;ratioP2;P2;SDS_P1;SDS_P2;PMS_P1;PMS_P2;Temp;Humidity;BMP_temperature;BMP_pressure;BME280_temperature;BME280_humidity;BME280_pressure;Samples;Min_cycle;Max_cycle;Signal;HPM_P1;HPM_P2
2022/10/07 00:01:08;;;;;;;0.60;0.10;;;12.20;1.00;;;;;;5073420;28;20805;-76
2022/10/07 00:03:36;;;;;;;0.70;0.67;;;12.20;1.00;;;;;;5072902;28;20457;-76
2022/10/07 00:06:06;;;;;;;0.60;0.10;;;12.20;1.00;;;;;;5073254;28;20857;-75
2022/10/07 00:08:36;;;;;;;0.60;0.10;;;12.20;1.00;;;;;;5072733;28;20458;-76
2022/10/07 00:11:07;;;;;;;0.60;0.10;;;12.20;1.00;;;;;;5073055;28;20442;-75
2022/10/07 00:13:37;;;;;;;0.73;0.50;;;12.20;1.00;;;;;;5072865;28;20886;-75
2022/10/07 00:16:09;;;;;;;0.60;0.10;;;12.20;1.00;;;;;;5073107;28;20472;-76
2022/10/07 00:18:39;;;;;;;0.60;0.10;;;12.10;1.00;;;;;;5075333;28;20541;-75
2022/10/07 00:21:10;;;;;;;0.60;0.10;;;12.10;1.00;;;;;;5076005;28;20458;-75
2022/10/07 00:23:38;;;;;;;0.60;0.10;;;12.10;1.00;;;;;;5074377;28;20452;-75
2022/10/07 00:26:11;;;;;;;0.60;0.10;;;12.00;1.00;;;;;;5073815;28;20862;-75
2022/10/07 00:28:39;;;;;;;0.60;0.10;;;12.00;1.00;;;;;;5073388;28;20473;-75
2022/10/07 00:31:16;;;;;;;0.60;0.10;;;11.90;1.00;;;;;;5073571;28;20511;-76
2022/10/07 00:33:45;;;;;;;0.60;0.10;;;11.90;1.00;;;;;;5072933;28;20452;-75
2022/10/07 00:36:15;;;;;;;0.60;0.10;;;11.80;1.00;;;;;;5073252;28;21009;-74
2022/10/07 00:38:43;;;;;;;0.60;0.10;;;11.50;1.00;;;;;;5072895;28;20547;-74
2022/10/07 00:41:18;;;;;;;0.60;0.10;;;11.70;1.00;;;;;;5073715;28;20433;-74
2022/10/07 00:43:47;;;;;;;0.60;0.20;;;11.70;1.00;;;;;;5073404;28;20457;-76
2022/10/07 00:46:25;;;;;;;0.60;0.10;;;11.80;1.00;;;;;;5072803;28;20456;-75
2022/10/07 00:48:54;;;;;;;0.60;0.10;;;11.80;1.00;;;;;;5072717;28;20480;-75
2022/10/07 00:51:23;;;;;;;0.60;0.10;;;11.80;1.00;;;;;;5072690;28;20445;-75
2022/10/07 00:53:53;;;;;;;0.60;0.10;;;11.80;1.00;;;;;;5072511;28;20442;-75
2022/10/07 00:56:23;;;;;;;0.60;0.10;;;11.90;1.00;;;;;;5064230;28;20489;-75
2022/10/07 00:58:51;;;;;;;0.60;0.10;;;11.90;1.00;;;;;;5050007;28;20617;-75
2022/10/07 01:01:21;;;;;;;0.60;0.10;;;11.80;1.00;;;;;;5050359;28;20455;-75
2022/10/07 01:03:49;;;;;;;0.60;0.10;;;11.80;1.00;;;;;;5050018;28;20447;-75
2022/10/07 01:06:17;;;;;;;0.60;0.10;;;11.80;1.00;;;;;;5049744;28;20928;-75
2022/10/07 01:08:48;;;;;;;0.60;0.10;;;11.80;1.00;;;;;;5049661;28;20831;-75
2022/10/07 01:11:32;;;;;;;0.60;0.10;;;11.80;1.00;;;;;;5060923;28;20441;-75
2022/10/07 01:14:08;;;;;;;0.60;0.10;;;11.70;1.00;;;;;;5072159;28;20900;-75
2022/10/07 01:16:46;;;;;;;0.60;0.10;;;11.70;1.00;;;;;;5071867;28;20961;-75
2022/10/07 01:19:35;;;;;;;0.60;0.10;;;11.60;1.00;;;;;;5072395;28;20525;-74
2022/10/07 01:22:19;;;;;;;0.60;0.10;;;11.60;1.00;;;;;;5072178;28;20928;-75
2022/10/07 01:24:57;;;;;;;0.60;0.10;;;11.60;1.00;;;;;;5072186;28;20441;-75
2022/10/07 01:27:28;;;;;;;0.60;0.20;;;11.50;1.00;;;;;;5072056;28;20473;-74
2022/10/07 01:30:02;;;;;;;0.60;0.10;;;11.50;1.00;;;;;;5071686;28;20940;-74
2022/10/07 01:32:35;;;;;;;0.70;0.47;;;11.50;1.00;;;;;;5071821;28;21181;-74
2022/10/07 01:35:07;;;;;;;0.60;0.10;;;11.40;1.00;;;;;;5072031;28;20575;-76
2022/10/07 01:37:44;;;;;;;0.60;0.10;;;11.40;1.00;;;;;;5071683;28;20465;-75
2022/10/07 01:40:17;;;;;;;0.60;0.10;;;11.40;1.00;;;;;;5072445;28;20455;-74
2022/10/07 01:42:48;;;;;;;0.60;0.10;;;11.40;1.00;;;;;;5072135;28;20881;-75
2022/10/07 01:45:20;;;;;;;0.60;0.10;;;11.40;1.00;;;;;;5072625;28;20441;-76
2022/10/07 01:47:49;;;;;;;0.60;0.10;;;11.40;1.00;;;;;;5075093;28;20469;-75
2022/10/07 01:50:17;;;;;;;0.60;0.10;;;;;;;;;;5075111;28;20932;-74
2022/10/07 01:53:02;;;;;;;0.60;0.10;;;11.30;1.00;;;;;;5077838;28;20816;-74
2022/10/07 01:55:58;;;;;;;0.60;0.10;;;11.30;1.00;;;;;;5076558;28;20598;-74
2022/10/07 01:58:38;;;;;;;0.60;0.10;;;11.30;1.00;;;;;;5075256;28;21030;-75
2022/10/07 02:01:17;;;;;;;0.60;0.10;;;11.30;1.00;;;;;;5075276;28;20433;-75
2022/10/07 02:03:56;;;;;;;0.60;0.10;;;11.30;1.00;;;;;;5075090;28;20485;-76
2022/10/07 02:06:35;;;;;;;0.60;0.10;;;11.10;1.00;;;;;;5075718;28;20455;-76
2022/10/07 02:09:11;;;;;;;0.60;0.10;;;11.10;1.00;;;;;;5074617;28;20453;-76
2022/10/07 02:11:45;;;;;;;0.60;0.10;;;11.00;1.00;;;;;;5069396;28;20533;-75
2022/10/07 02:14:18;;;;;;;0.60;0.13;;;11.00;1.00;;;;;;5089163;28;20731;-75
2022/10/07 02:16:49;;;;;;;0.60;0.10;;;11.00;1.00;;;;;;5095108;28;20417;-75
2022/10/07 02:19:22;;;;;;;0.60;0.10;;;11.00;1.00;;;;;;5082461;28;21003;-74
2022/10/07 02:21:53;;;;;;;0.60;0.10;;;11.00;1.00;;;;;;5075968;28;20442;-75
2022/10/07 02:24:25;;;;;;;0.60;0.10;;;11.00;1.00;;;;;;5076292;28;20453;-75
2022/10/07 02:26:54;;;;;;;0.60;0.10;;;11.00;1.00;;;;;;5075610;28;20449;-75
2022/10/07 02:29:26;;;;;;;0.60;0.20;;;10.90;1.00;;;;;;5081018;22;20494;-71
2022/10/07 02:31:56;;;;;;;0.60;0.10;;;11.00;1.00;;;;;;5053787;28;20446;-71
2022/10/07 02:34:27;;;;;;;0.60;0.10;;;10.90;1.00;;;;;;5053507;28;20458;-70
2022/10/07 02:36:59;;;;;;;0.60;0.10;;;10.90;1.00;;;;;;5053789;28;20446;-71
2022/10/07 02:39:27;;;;;;;0.60;0.20;;;10.90;1.00;;;;;;5052536;28;20518;-72
2022/10/07 02:42:01;;;;;;;0.60;0.10;;;10.90;1.00;;;;;;5053706;28;20446;-72
2022/10/07 02:44:35;;;;;;;0.60;0.10;;;10.90;1.00;;;;;;5053765;28;20482;-71
2022/10/07 02:47:08;;;;;;;0.60;0.10;;;10.90;1.00;;;;;;5053457;28;20496;-71
2022/10/07 02:49:39;;;;;;;0.60;0.10;;;10.90;1.00;;;;;;5053521;28;20490;-71
2022/10/07 02:52:10;;;;;;;0.60;0.10;;;10.80;1.00;;;;;;5053189;28;20442;-72
2022/10/07 02:54:43;;;;;;;0.60;0.10;;;10.90;1.00;;;;;;5053373;28;20497;-72
2022/10/07 02:57:15;;;;;;;0.60;0.10;;;10.80;1.00;;;;;;5053433;28;20447;-71
2022/10/07 02:59:47;;;;;;;0.60;0.10;;;10.80;1.00;;;;;;5052788;28;20539;-71
2022/10/07 03:02:20;;;;;;;0.60;0.10;;;10.80;1.00;;;;;;5052422;28;20486;-71
2022/10/07 03:04:48;;;;;;;0.60;0.10;;;10.70;1.00;;;;;;5052768;28;20955;-71
2022/10/07 03:07:16;;;;;;;0.60;0.10;;;10.70;1.00;;;;;;5053289;28;20501;-73
2022/10/07 03:09:44;;;;;;;0.60;0.10;;;10.70;1.00;;;;;;5052869;28;20462;-71
2022/10/07 03:12:12;;;;;;;0.60;0.10;;;10.60;1.00;;;;;;5071130;28;20449;-71
2022/10/07 03:14:40;;;;;;;0.60;0.10;;;10.50;1.00;;;;;;5072846;28;20457;-71
2022/10/07 03:17:10;;;;;;;0.60;0.10;;;10.50;1.00;;;;;;5072636;28;20450;-71
2022/10/07 03:19:37;;;;;;;0.60;0.10;;;10.50;1.00;;;;;;5072280;28;20478;-71
2022/10/07 03:22:05;;;;;;;0.60;0.10;;;10.40;1.00;;;;;;5072226;28;20457;-71
2022/10/07 03:24:33;;;;;;;0.60;0.10;;;10.30;1.00;;;;;;5072211;28;20438;-70
2022/10/07 03:27:01;;;;;;;0.60;0.10;;;10.30;1.00;;;;;;5072863;28;20898;-71
2022/10/07 03:29:31;;;;;;;0.60;0.10;;;10.30;1.00;;;;;;5072316;28;20508;-71
2022/10/07 03:32:00;;;;;;;0.60;0.10;;;10.30;1.00;;;;;;5072940;28;20445;-71
2022/10/07 03:34:29;;;;;;;0.60;0.10;;;10.30;1.00;;;;;;5072484;28;20449;-71
2022/10/07 03:36:57;;;;;;;0.60;0.10;;;10.20;1.00;;;;;;5072392;28;20455;-71
2022/10/07 03:39:25;;;;;;;0.60;0.10;;;10.20;1.00;;;;;;5072783;28;20522;-71
2022/10/07 03:41:53;;;;;;;0.60;0.10;;;10.20;1.00;;;;;;5072679;28;20479;-72
2022/10/07 03:44:21;;;;;;;0.60;0.10;;;10.20;1.00;;;;;;5072462;28;20536;-72
2022/10/07 03:46:50;;;;;;;0.60;0.10;;;10.20;1.00;;;;;;5072592;28;20442;-72
2022/10/07 03:49:19;;;;;;;0.60;0.10;;;10.20;1.00;;;;;;5072056;28;20458;-70
2022/10/07 03:51:48;;;;;;;0.60;0.10;;;10.20;1.00;;;;;;5072380;28;20927;-71
2022/10/07 03:54:16;;;;;;;0.60;0.10;;;10.20;1.00;;;;;;5072367;28;20446;-72
2022/10/07 03:56:44;;;;;;;0.60;0.10;;;10.20;1.00;;;;;;5072554;28;20480;-72
2022/10/07 03:59:12;;;;;;;0.60;0.10;;;10.20;1.00;;;;;;5072083;28;20526;-72
2022/10/07 04:01:40;;;;;;;0.60;0.10;;;10.20;1.00;;;;;;5072709;28;20481;-71
2022/10/07 04:04:08;;;;;;;0.60;0.10;;;11.20;1.00;;;;;;5072354;28;20511;-71
2022/10/07 04:06:37;;;;;;;0.60;0.10;;;10.10;1.00;;;;;;5072732;28;20441;-72
2022/10/07 04:09:06;;;;;;;0.60;0.10;;;10.10;1.00;;;;;;5072173;28;20496;-70
2022/10/07 04:11:34;;;;;;;0.60;0.10;;;10.10;1.00;;;;;;5059205;28;20449;-72
2022/10/07 04:14:02;;;;;;;0.60;0.10;;;10.10;1.00;;;;;;5051131;28;20519;-71
2022/10/07 04:16:32;;;;;;;0.60;0.10;;;10.10;1.00;;;;;;5052456;28;20451;-71
2022/10/07 04:19:06;;;;;;;0.60;0.10;;;10.10;1.00;;;;;;5052028;28;20478;-72
2022/10/07 04:21:34;;;;;;;0.60;0.10;;;10.10;1.00;;;;;;5052040;28;20454;-72
2022/10/07 04:24:02;;;;;;;0.60;0.20;;;10.10;1.00;;;;;;5051470;28;20442;-71
2022/10/07 04:26:31;;;;;;;0.50;0.10;;;10.10;1.00;;;;;;5051633;28;20453;-71
2022/10/07 04:28:59;;;;;;;0.60;0.10;;;10.10;1.00;;;;;;5051448;28;20536;-71
2022/10/07 04:31:27;;;;;;;0.60;0.10;;;10.10;1.00;;;;;;5047962;28;21028;-72
2022/10/07 04:33:55;;;;;;;0.60;0.10;;;10.10;1.00;;;;;;5051395;28;20541;-72
2022/10/07 04:36:24;;;;;;;0.60;0.10;;;10.10;1.00;;;;;;5047488;28;20489;-72
2022/10/07 04:38:52;;;;;;;0.60;0.10;;;10.00;1.00;;;;;;5051612;28;20494;-71
2022/10/07 04:41:20;;;;;;;0.60;0.10;;;9.10;1.00;;;;;;5051586;28;20541;-72
2022/10/07 04:43:51;;;;;;;0.60;0.10;;;10.00;1.00;;;;;;5051842;28;20453;-72
2022/10/07 04:46:24;;;;;;;0.60;0.10;;;10.00;1.00;;;;;;5051694;28;20458;-71
2022/10/07 04:48:52;;;;;;;0.60;0.10;;;10.00;1.00;;;;;;5051580;28;20532;-72
2022/10/07 04:51:21;;;;;;;0.60;0.10;;;10.00;1.00;;;;;;5051396;28;20884;-71
2022/10/07 04:53:51;;;;;;;0.60;0.10;;;10.00;1.00;;;;;;5051292;28;20504;-72
2022/10/07 04:56:23;;;;;;;0.60;0.10;;;10.00;1.00;;;;;;5051645;28;20927;-71
2022/10/07 04:58:53;;;;;;;0.60;0.10;;;10.00;1.00;;;;;;5051563;28;20606;-71
2022/10/07 05:01:21;;;;;;;0.60;0.10;;;10.00;1.00;;;;;;5052115;28;20481;-71
2022/10/07 05:03:48;;;;;;;0.50;0.10;;;10.00;1.00;;;;;;5051457;28;20435;-71
2022/10/07 05:06:17;;;;;;;0.60;0.10;;;10.00;1.00;;;;;;5051563;28;20979;-71
2022/10/07 05:08:45;;;;;;;0.60;0.10;;;10.00;1.00;;;;;;5051266;28;20471;-72
2022/10/07 05:11:13;;;;;;;0.60;0.10;;;10.00;1.00;;;;;;5051779;28;20474;-71
2022/10/07 05:13:41;;;;;;;0.60;0.10;;;10.10;1.00;;;;;;5049650;28;20499;-71
2022/10/07 05:16:11;;;;;;;0.60;0.10;;;;;;;;;;5048130;28;20453;-71
2022/10/07 05:18:38;;;;;;;0.57;0.10;;;10.10;1.00;;;;;;5051621;28;20467;-72
2022/10/07 05:21:07;;;;;;;0.60;0.10;;;10.00;1.00;;;;;;5051050;28;20482;-71
2022/10/07 05:23:36;;;;;;;0.60;0.10;;;9.90;1.00;;;;;;5051068;28;20796;-72
2022/10/07 05:26:06;;;;;;;0.60;0.10;;;9.90;1.00;;;;;;5055127;28;20447;-72
2022/10/07 05:28:35;;;;;;;0.50;0.10;;;9.90;1.00;;;;;;5055113;28;20878;-72
2022/10/07 05:31:07;;;;;;;0.60;0.10;;;9.80;1.00;;;;;;5055425;28;20453;-73
2022/10/07 05:33:37;;;;;;;0.60;0.10;;;9.80;1.00;;;;;;5054721;28;20446;-72
2022/10/07 05:36:07;;;;;;;0.60;0.10;;;9.80;1.00;;;;;;5055205;28;20909;-71
2022/10/07 05:38:35;;;;;;;0.60;0.10;;;9.90;1.00;;;;;;5054681;28;20478;-73
2022/10/07 05:41:06;;;;;;;0.60;0.10;;;9.90;1.00;;;;;;5055028;28;21058;-75
2022/10/07 05:43:36;;;;;;;0.77;0.57;;;9.90;1.00;;;;;;5054903;28;20961;-72
2022/10/07 05:46:06;;;;;;;0.60;0.10;;;9.90;1.00;;;;;;5054955;28;20449;-70
2022/10/07 05:48:36;;;;;;;0.50;0.10;;;10.00;1.00;;;;;;5054817;28;20520;-72
2022/10/07 05:51:07;;;;;;;0.60;0.10;;;10.10;1.00;;;;;;5054847;28;20545;-71
2022/10/07 05:53:35;;;;;;;0.53;0.10;;;10.10;1.00;;;;;;5053949;28;20862;-72
2022/10/07 05:56:05;;;;;;;0.60;0.10;;;10.10;1.00;;;;;;5054816;28;20516;-71
2022/10/07 05:58:34;;;;;;;0.60;0.10;;;10.10;1.00;;;;;;5054600;28;20455;-73
2022/10/07 06:01:04;;;;;;;0.60;0.10;;;10.10;1.00;;;;;;5054953;28;20517;-71
2022/10/07 06:03:41;;;;;;;0.50;0.10;;;10.20;1.00;;;;;;5055267;28;20492;-71
2022/10/07 06:06:09;;;;;;;1.10;1.10;;;10.20;1.00;;;;;;5056539;28;20457;-71
2022/10/07 06:08:37;;;;;;;0.50;0.10;;;10.20;1.00;;;;;;5056553;28;20554;-71
2022/10/07 06:13:52;;;;;;;0.60;0.10;;;10.30;1.00;;;;;;5049696;28;20466;-72
2022/10/07 06:16:20;;;;;;;0.60;0.10;;;9.50;1.00;;;;;;5056402;28;20435;-71
2022/10/07 06:18:51;;;;;;;0.60;0.10;;;;;;;;;;5055924;28;20494;-72
2022/10/07 06:21:20;;;;;;;0.60;0.10;;;10.40;1.00;;;;;;5055456;28;20544;-72
2022/10/07 06:23:51;;;;;;;0.60;0.10;;;10.40;1.00;;;;;;5054442;28;20443;-71
2022/10/07 06:26:20;;;;;;;0.60;0.10;;;10.40;1.00;;;;;;5055192;28;20936;-70
2022/10/07 06:28:48;;;;;;;0.60;0.20;;;10.50;1.00;;;;;;5055025;28;20482;-72
2022/10/07 06:31:21;;;;;;;0.60;0.10;;;10.50;1.00;;;;;;5054778;28;20440;-71
2022/10/07 06:33:50;;;;;;;0.60;0.10;;;10.60;1.00;;;;;;5054005;28;20493;-71
2022/10/07 06:36:19;;;;;;;0.60;0.10;;;10.60;1.00;;;;;;5053947;28;20450;-70
2022/10/07 06:38:48;;;;;;;0.60;0.10;;;10.70;1.00;;;;;;5055079;28;20535;-71
2022/10/07 06:41:17;;;;;;;0.60;0.10;;;10.70;1.00;;;;;;5055657;28;20513;-70
2022/10/07 06:43:45;;;;;;;0.60;0.10;;;10.70;1.00;;;;;;5055085;28;20458;-70
2022/10/07 06:46:15;;;;;;;0.60;0.10;;;10.70;1.00;;;;;;5054529;28;20446;-71
2022/10/07 06:48:44;;;;;;;0.60;0.10;;;10.70;1.00;;;;;;5054369;28;20616;-71
2022/10/07 06:51:15;;;;;;;0.60;0.10;;;10.80;1.00;;;;;;5053457;28;20446;-71
2022/10/07 06:53:44;;;;;;;7.37;6.83;;;10.80;1.00;;;;;;5050233;28;20912;-72
2022/10/07 06:56:13;;;;;;;0.60;0.33;;;10.80;1.00;;;;;;5053457;28;20438;-72
2022/10/07 06:58:42;;;;;;;0.60;0.10;;;10.80;1.00;;;;;;5053650;28;20463;-72
2022/10/07 07:01:11;;;;;;;0.60;0.20;;;10.80;1.00;;;;;;5053285;28;20561;-72
2022/10/07 07:03:39;;;;;;;0.60;0.10;;;10.90;1.00;;;;;;5053392;28;20454;-72
2022/10/07 07:06:07;;;;;;;0.60;0.10;;;10.80;1.00;;;;;;5053106;28;20470;-72
2022/10/07 07:08:39;;;;;;;0.60;0.10;;;10.90;1.00;;;;;;5054184;28;20824;-71
2022/10/07 07:13:51;;;;;;;0.60;0.20;;;11.10;1.00;;;;;;5052059;28;20881;-72
2022/10/07 07:16:19;;;;;;;0.60;0.10;;;11.20;1.00;;;;;;5053178;28;20446;-72
2022/10/07 07:18:50;;;;;;;0.60;0.10;;;11.20;1.00;;;;;;5053223;28;20470;-72
2022/10/07 07:21:18;;;;;;;0.60;0.10;;;11.30;1.00;;;;;;5051513;28;20482;-72
2022/10/07 07:23:48;;;;;;;0.60;0.10;;;11.40;1.00;;;;;;5051187;28;20469;-72
2022/10/07 07:26:17;;;;;;;0.60;0.10;;;11.50;1.00;;;;;;5053010;28;20594;-71
2022/10/07 07:28:50;;;;;;;0.60;0.10;;;11.50;1.00;;;;;;5052717;28;20470;-72
2022/10/07 07:31:18;;;;;;;0.60;0.10;;;11.60;1.00;;;;;;5053173;28;20446;-72
2022/10/07 07:33:51;;;;;;;0.60;0.10;;;11.50;1.00;;;;;;5052422;28;20500;-71
2022/10/07 07:36:22;;;;;;;0.60;0.10;;;11.70;1.00;;;;;;5052554;28;20491;-71
2022/10/07 07:38:52;;;;;;;0.60;0.10;;;11.70;1.00;;;;;;5052411;28;20462;-71
2022/10/07 07:41:21;;;;;;;0.60;0.10;;;;;;;;;;5052506;28;21008;-72
2022/10/07 07:43:55;;;;;;;0.60;0.10;;;11.80;1.00;;;;;;5052229;28;20901;-73
2022/10/07 07:46:26;;;;;;;0.60;0.10;;;11.80;1.00;;;;;;5052829;28;20446;-73
2022/10/07 07:48:57;;;;;;;0.60;0.10;;;11.80;1.00;;;;;;5051793;28;20474;-72
2022/10/07 07:51:25;;;;;;;0.60;0.10;;;11.90;1.00;;;;;;5052858;28;20438;-73
2022/10/07 07:53:55;;;;;;;0.60;0.10;;;11.90;1.00;;;;;;5052345;28;20439;-72
2022/10/07 07:56:24;;;;;;;0.60;0.10;;;;;;;;;;5052876;28;20462;-73
2022/10/07 07:58:53;;;;;;;0.60;0.10;;;12.00;1.00;;;;;;5052783;28;21017;-71
2022/10/07 08:01:21;;;;;;;0.60;0.10;;;12.00;1.00;;;;;;5052528;28;20478;-72
2022/10/07 08:03:49;;;;;;;0.60;0.10;;;12.10;1.00;;;;;;5052306;28;20446;-71
2022/10/07 08:06:20;;;;;;;0.60;0.10;;;12.10;1.00;;;;;;5053588;28;20439;-74
2022/10/07 08:08:48;;;;;;;0.60;0.10;;;12.20;1.00;;;;;;5051254;28;20490;-74
2022/10/07 08:11:19;;;;;;;0.60;0.10;;;12.20;1.00;;;;;;5052192;28;20989;-73
2022/10/07 08:13:48;;;;;;;0.60;0.10;;;12.20;1.00;;;;;;5050395;28;20466;-73
2022/10/07 08:16:18;;;;;;;0.60;0.10;;;12.20;1.00;;;;;;5051866;28;20956;-73
2022/10/07 08:18:47;;;;;;;0.60;0.10;;;12.20;1.00;;;;;;5053242;28;20520;-73
2022/10/07 08:21:17;;;;;;;0.60;0.10;;;12.20;1.00;;;;;;5052477;28;20489;-72
2022/10/07 08:23:46;;;;;;;0.60;0.10;;;12.20;1.00;;;;;;5052502;28;20449;-73
2022/10/07 08:26:15;;;;;;;0.60;0.10;;;;;;;;;;5052904;28;20542;-73
2022/10/07 08:28:45;;;;;;;0.60;0.10;;;12.30;1.00;;;;;;5051994;28;20470;-73
2022/10/07 08:31:15;;;;;;;0.60;0.10;;;12.40;1.00;;;;;;5046658;28;20459;-74
2022/10/07 08:33:45;;;;;;;0.60;0.10;;;12.40;1.00;;;;;;5051837;28;20561;-74
2022/10/07 08:36:14;;;;;;;0.60;0.10;;;12.50;1.00;;;;;;5052253;28;20446;-75
2022/10/07 08:38:43;;;;;;;0.60;0.10;;;12.60;1.00;;;;;;5052409;28;20865;-74
2022/10/07 08:41:24;;;;;;;0.60;0.10;;;12.70;1.00;;;;;;5051869;28;20855;-74
2022/10/07 08:43:53;;;;;;;0.60;0.10;;;12.70;1.00;;;;;;5052414;28;20863;-75
2022/10/07 08:46:30;;;;;;;0.60;0.10;;;12.80;1.00;;;;;;5053061;28;20445;-72
2022/10/07 08:49:04;;;;;;;6.20;5.80;;;12.80;1.00;;;;;;5052301;28;20468;-74
2022/10/07 08:51:39;;;;;;;0.60;0.10;;;12.80;1.00;;;;;;5052181;28;20430;-74
2022/10/07 08:54:14;;;;;;;0.60;0.10;;;;;;;;;;5052502;28;21021;-71
2022/10/07 08:56:43;;;;;;;0.60;0.10;;;12.90;1.00;;;;;;5052023;28;20456;-73
2022/10/07 08:59:19;;;;;;;0.60;0.10;;;12.90;1.00;;;;;;5053645;28;20531;-73
2022/10/07 09:02:02;;;;;;;0.60;0.10;;;12.90;1.00;;;;;;5057181;28;20539;-73
2022/10/07 09:04:42;;;;;;;0.60;0.13;;;13.00;1.00;;;;;;5056282;28;20446;-74
2022/10/07 09:07:14;;;;;;;0.60;0.10;;;13.10;1.00;;;;;;5057105;28;20495;-73
2022/10/07 09:09:46;;;;;;;0.60;0.10;;;13.20;1.00;;;;;;5056361;28;20461;-73
2022/10/07 09:12:21;;;;;;;0.60;0.10;;;13.20;1.00;;;;;;5074240;28;20850;-74
2022/10/07 09:14:55;;;;;;;0.60;0.10;;;13.20;1.00;;;;;;5077670;28;20445;-80
2022/10/07 09:17:27;;;;;;;0.60;0.10;;;13.30;1.00;;;;;;5077296;28;20453;-74
2022/10/07 09:20:08;;;;;;;0.60;0.10;;;13.50;1.00;;;;;;5068488;28;20484;-73
2022/10/07 09:22:39;;;;;;;0.60;0.10;;;13.60;1.00;;;;;;5054692;28;20485;-73
2022/10/07 09:25:19;;;;;;;0.60;0.20;;;13.60;1.00;;;;;;5055344;28;20446;-73
2022/10/07 09:27:53;;;;;;;0.60;0.20;;;13.70;1.00;;;;;;5055192;28;20442;-73
2022/10/07 09:30:24;;;;;;;0.60;0.20;;;13.70;1.00;;;;;;5055862;28;20483;-73
2022/10/07 09:32:54;;;;;;;0.60;0.10;;;13.70;1.00;;;;;;5055231;28;21033;-73
2022/10/07 09:35:24;;;;;;;0.60;0.10;;;13.60;1.00;;;;;;5055388;28;20450;-73
2022/10/07 09:37:58;;;;;;;0.60;0.10;;;13.80;1.00;;;;;;5055466;28;20458;-73
2022/10/07 09:40:36;;;;;;;0.60;0.10;;;13.90;1.00;;;;;;5055713;28;20953;-74
2022/10/07 09:43:12;;;;;;;0.60;0.10;;;13.90;1.00;;;;;;5055349;28;20481;-74
2022/10/07 09:45:46;;;;;;;0.60;0.10;;;14.10;1.00;;;;;;5055524;28;20442;-74
2022/10/07 09:48:21;;;;;;;0.60;0.10;;;14.20;1.00;;;;;;5055494;28;20454;-74
2022/10/07 09:50:50;;;;;;;0.60;0.10;;;;;;;;;;5055654;28;20453;-74
2022/10/07 09:53:20;;;;;;;0.60;0.10;;;;;;;;;;5055708;28;20501;-74
2022/10/07 09:55:50;;;;;;;0.60;0.10;;;14.50;1.00;;;;;;5054932;28;20442;-74
2022/10/07 09:58:20;;;;;;;0.60;0.10;;;14.60;1.00;;;;;;5054727;28;20490;-74
2022/10/07 10:00:54;;;;;;;0.60;0.10;;;14.70;1.00;;;;;;5055971;28;20545;-73
2022/10/07 10:03:29;;;;;;;0.93;0.70;;;14.70;1.00;;;;;;5055165;28;20551;-73
2022/10/07 10:05:58;;;;;;;0.67;0.37;;;14.80;1.00;;;;;;5054913;28;20450;-73
2022/10/07 10:08:29;;;;;;;0.60;0.10;;;14.80;1.00;;;;;;5056206;28;20473;-73
2022/10/07 10:10:58;;;;;;;0.60;0.10;;;15.00;1.00;;;;;;5055831;28;20450;-74
2022/10/07 10:13:29;;;;;;;0.60;0.10;;;15.00;1.00;;;;;;5056958;28;20496;-73
2022/10/07 10:15:59;;;;;;;0.60;0.10;;;15.20;1.00;;;;;;5054656;28;20454;-73
2022/10/07 10:18:34;;;;;;;0.60;0.10;;;15.30;1.00;;;;;;5054130;28;20857;-75
2022/10/07 10:21:29;;;;;;;0.60;0.10;;;15.30;1.00;;;;;;5055110;28;20745;-74
2022/10/07 10:23:59;;;;;;;0.60;0.10;;;15.30;1.00;;;;;;5007678;28;20552;-73
2022/10/07 10:26:54;;;;;;;0.60;0.10;;;15.50;1.00;;;;;;5055600;28;20835;-73
2022/10/07 10:29:44;;;;;;;0.60;0.10;;;16.90;1.00;;;;;;5049257;28;20474;-72
2022/10/07 10:32:51;;;;;;;0.60;0.10;;;15.70;1.00;;;;;;5055773;28;20517;-73
2022/10/07 10:35:25;;;;;;;0.60;0.10;;;15.70;1.00;;;;;;5054698;28;20549;-72
2022/10/07 10:38:19;;;;;;;0.60;0.10;;;15.80;1.00;;;;;;5058134;28;20469;-72
2022/10/07 10:40:53;;;;;;;0.60;0.20;;;15.80;1.00;;;;;;5056035;28;20447;-74
2022/10/07 10:43:30;;;;;;;0.60;0.10;;;15.80;1.00;;;;;;5057133;28;21018;-72
2022/10/07 10:46:24;;;;;;;0.60;0.10;;;15.90;1.00;;;;;;5057575;28;20556;-71
2022/10/07 10:49:08;;;;;;;0.60;0.10;;;16.00;1.00;;;;;;5054999;28;20462;-73
2022/10/07 10:51:48;;;;;;;0.60;0.10;;;16.20;1.00;;;;;;5044951;28;20463;-73
2022/10/07 10:54:24;;;;;;;2.20;1.90;;;16.20;1.00;;;;;;5048036;28;20944;-73
2022/10/07 10:57:02;;;;;;;0.60;0.10;;;16.30;1.00;;;;;;5052628;28;20454;-73
2022/10/07 10:59:55;;;;;;;0.60;0.20;;;16.40;1.00;;;;;;5053716;28;20581;-72
2022/10/07 11:02:40;;;;;;;0.60;0.10;;;16.40;1.00;;;;;;5054490;28;20913;-73
2022/10/07 11:05:16;;;;;;;0.60;0.10;;;16.50;1.00;;;;;;5052745;28;20427;-75
2022/10/07 11:07:48;;;;;;;0.60;0.10;;;16.60;1.00;;;;;;5052127;28;20449;-74
2022/10/07 11:10:21;;;;;;;0.60;0.20;;;16.60;1.00;;;;;;5054470;28;20443;-73
2022/10/07 11:12:55;;;;;;;0.80;0.50;;;16.80;1.00;;;;;;5072609;28;20433;-74
2022/10/07 11:15:27;;;;;;;0.60;0.10;;;16.90;1.00;;;;;;5072399;28;20844;-74
2022/10/07 11:18:00;;;;;;;0.60;0.10;;;17.00;1.00;;;;;;5073029;28;20500;-73
2022/10/07 11:20:34;;;;;;;0.60;0.10;;;17.00;1.00;;;;;;5073165;28;20968;-74
2022/10/07 11:23:15;;;;;;;0.60;0.10;;;17.00;1.00;;;;;;5073533;28;20586;-76
2022/10/07 11:25:50;;;;;;;0.60;0.10;;;17.10;1.00;;;;;;5067887;28;20458;-74
2022/10/07 11:28:22;;;;;;;0.60;0.10;;;17.20;1.00;;;;;;5053573;28;20492;-75
2022/10/07 11:30:57;;;;;;;0.60;0.10;;;17.20;1.00;;;;;;5053194;28;20478;-74
2022/10/07 11:33:35;;;;;;;0.60;0.10;;;17.30;1.00;;;;;;5052591;28;20979;-75
2022/10/07 11:36:13;;;;;;;0.60;0.10;;;17.40;1.00;;;;;;5053285;28;20496;-74
2022/10/07 11:38:42;;;;;;;0.60;0.10;;;17.40;1.00;;;;;;5053223;28;20883;-73
2022/10/07 11:41:19;;;;;;;0.60;0.13;;;17.40;1.00;;;;;;5053249;28;20489;-75
2022/10/07 11:43:48;;;;;;;0.60;0.10;;;;;;;;;;5052450;28;20628;-73
2022/10/07 11:46:21;;;;;;;0.60;0.10;;;17.40;1.00;;;;;;5053137;28;20446;-75
2022/10/07 11:48:50;;;;;;;0.60;0.20;;;;;;;;;;5051731;28;20478;-74
2022/10/07 11:51:24;;;;;;;0.60;0.10;;;17.40;1.00;;;;;;5051238;28;20561;-75
2022/10/07 11:53:55;;;;;;;0.60;0.20;;;17.40;1.00;;;;;;5052421;28;20925;-74
2022/10/07 11:56:26;;;;;;;0.60;0.10;;;17.40;1.00;;;;;;5052716;28;20466;-74
2022/10/07 11:59:00;;;;;;;0.60;0.10;;;17.40;1.00;;;;;;5053475;28;20907;-74
2022/10/07 12:01:41;;;;;;;0.60;0.20;;;17.40;1.00;;;;;;5058228;28;20804;-74
2022/10/07 12:04:37;;;;;;;0.60;0.20;;;17.40;1.00;;;;;;5057515;28;20489;-74
2022/10/07 12:07:35;;;;;;;0.60;0.10;;;17.40;1.00;;;;;;5057073;28;20442;-75
2022/10/07 12:10:32;;;;;;;0.60;0.10;;;17.50;1.00;;;;;;5056738;28;20537;-75
2022/10/07 12:13:22;;;;;;;0.60;0.10;;;17.50;1.00;;;;;;5026159;28;20446;-74
2022/10/07 12:15:52;;;;;;;0.60;0.10;;;17.50;1.00;;;;;;5071760;28;20433;-73
2022/10/07 12:18:26;;;;;;;0.80;0.77;;;17.60;1.00;;;;;;5050592;28;20540;-74
2022/10/07 12:21:00;;;;;;;0.60;0.10;;;;;;;;;;5048809;28;20742;-75
2022/10/07 12:23:47;;;;;;;0.60;0.10;;;17.80;1.00;;;;;;5051230;28;20551;-75
2022/10/07 12:26:44;;;;;;;0.60;0.10;;;17.80;1.00;;;;;;5051202;28;20442;-74
2022/10/07 12:29:47;;;;;;;0.60;0.10;;;17.90;1.00;;;;;;5044951;28;20520;-75
2022/10/07 12:32:55;;;;;;;0.60;0.10;;;18.10;1.00;;;;;;5050713;28;20442;-74
2022/10/07 12:35:47;;;;;;;0.60;0.10;;;18.20;1.00;;;;;;5049389;28;20697;-75
2022/10/07 12:38:29;;;;;;;0.60;0.20;;;18.30;1.00;;;;;;5050947;28;20968;-74
2022/10/07 12:41:24;;;;;;;0.60;0.10;;;19.40;1.00;;;;;;5050488;28;20449;-73
2022/10/07 12:44:05;;;;;;;0.60;0.13;;;18.40;1.00;;;;;;5050400;28;20899;-74
2022/10/07 12:46:38;;;;;;;0.60;0.20;;;18.60;1.00;;;;;;5051326;28;20446;-76
2022/10/07 12:49:15;;;;;;;0.60;0.10;;;18.60;1.00;;;;;;5051004;28;20485;-79
2022/10/07 12:51:44;;;;;;;0.60;0.10;;;18.70;1.00;;;;;;5052627;28;20434;-74
2022/10/07 12:54:19;;;;;;;0.60;0.10;;;18.70;1.00;;;;;;5051596;28;20482;-75
2022/10/07 12:56:48;;;;;;;0.80;0.80;;;18.80;1.00;;;;;;5051849;28;20442;-74
2022/10/07 12:59:49;;;;;;;0.60;0.10;;;18.90;1.00;;;;;;5051891;28;20539;-74
2022/10/07 13:02:56;;;;;;;0.60;0.20;;;18.80;1.00;;;;;;5032729;28;20817;-74
2022/10/07 13:05:52;;;;;;;0.60;0.10;;;18.80;1.00;;;;;;5051399;28;20516;-74
2022/10/07 13:09:05;;;;;;;0.60;0.10;;;18.80;1.00;;;;;;5048535;28;20992;-74
2022/10/07 13:11:59;;;;;;;0.60;0.10;;;19.00;1.00;;;;;;5053292;28;21711;-75
2022/10/07 13:14:34;;;;;;;0.90;0.90;;;19.00;1.00;;;;;;5052340;28;20496;-73
2022/10/07 13:17:14;;;;;;;0.60;0.10;;;19.00;1.00;;;;;;5050064;28;20533;-76
2022/10/07 13:19:52;;;;;;;0.60;0.20;;;19.10;1.00;;;;;;5032156;28;20463;-75
2022/10/07 13:22:21;;;;;;;0.70;0.40;;;19.10;1.00;;;;;;5031354;28;20435;-73
2022/10/07 13:24:53;;;;;;;0.60;0.20;;;19.20;1.00;;;;;;5031717;28;20479;-74
2022/10/07 13:27:25;;;;;;;0.60;0.10;;;19.30;1.00;;;;;;5035295;28;20925;-74
2022/10/07 13:29:56;;;;;;;0.60;0.10;;;19.30;1.00;;;;;;5050806;28;20496;-75
2022/10/07 13:32:29;;;;;;;0.60;0.10;;;19.30;1.00;;;;;;5051112;28;20476;-75
2022/10/07 13:34:57;;;;;;;0.60;0.10;;;19.30;1.00;;;;;;5051895;28;20439;-76
2022/10/07 13:37:27;;;;;;;0.60;0.10;;;19.30;1.00;;;;;;5052542;28;21119;-75